Time,TemperatureF,DewpointF,PressureIn,WindDirection,WindDirectionDegrees,WindSpeedMPH,WindSpeedGustMPH,Humidity,HourlyPrecipIn,Conditions,Clouds,dailyrainin,SoftwareType,DateUTC
2013-10-31 00:23:00,57.0,57.0,29.73,SE,128,3.0,7.0,99,0.00,,,0.00,,2013-10-31 05:23:00,
2013-10-31 00:52:00,57.0,56.0,29.72,SE,141,1.0,6.0,98,0.00,,,0.00,,2013-10-31 05:52:00,
2013-10-31 01:12:00,57.0,56.0,29.72,SW,218,1.0,6.0,98,0.00,,,0.00,,2013-10-31 06:12:00,
2013-10-31 01:22:00,57.0,56.0,29.70,SSE,148,1.0,4.0,98,0.00,,,0.00,,2013-10-31 06:22:00,
2013-10-31 01:53:00,57.0,56.0,29.69,WSW,242,1.0,2.0,98,0.00,,,0.00,,2013-10-31 06:53:00,
2013-10-31 02:11:00,57.0,57.0,29.68,SW,223,2.0,3.0,99,0.00,,,0.00,,2013-10-31 07:11:00,
2013-10-31 02:21:00,57.0,57.0,29.67,SW,223,0.0,2.0,99,0.00,,,0.00,,2013-10-31 07:21:00,
2013-10-31 02:52:00,57.0,57.0,29.64,SE,134,1.0,3.0,99,0.00,,,0.00,,2013-10-31 07:52:00,
2013-10-31 03:12:00,57.0,57.0,29.64,WSW,244,1.0,4.0,99,0.00,,,0.00,,2013-10-31 08:12:00,
2013-10-31 03:22:00,58.0,58.0,29.63,WSW,245,1.0,2.0,99,0.00,,,0.00,,2013-10-31 08:22:00,
2013-10-31 03:42:00,58.0,58.0,29.62,WSW,239,1.0,3.0,99,0.00,,,0.00,,2013-10-31 08:42:00,
2013-10-31 03:52:00,58.0,58.0,29.60,SE,126,1.0,3.0,99,0.00,,,0.00,,2013-10-31 08:52:00,
2013-10-31 04:22:00,57.0,57.0,29.63,NW,307,1.0,2.0,99,0.00,,,0.00,,2013-10-31 09:22:00,
2013-10-31 04:43:00,57.0,57.0,29.62,SSE,149,1.0,1.0,99,0.00,,,0.00,,2013-10-31 09:43:00,
2013-10-31 04:53:00,58.0,58.0,29.61,South,188,0.0,3.0,99,0.00,,,0.00,,2013-10-31 09:53:00,
2013-10-31 05:13:00,58.0,58.0,29.61,SW,225,0.0,3.0,99,0.00,,,0.00,,2013-10-31 10:13:00,
2013-10-31 05:42:00,58.0,58.0,29.59,SSE,152,2.0,7.0,99,0.00,,,0.00,,2013-10-31 10:42:00,
2013-10-31 05:53:00,58.0,58.0,29.59,SSW,210,1.0,2.0,99,0.00,,,0.00,,2013-10-31 10:53:00,
2013-10-31 06:21:00,59.0,59.0,29.57,WSW,239,1.0,2.0,99,0.01,,,0.01,,2013-10-31 11:21:00,
2013-10-31 06:42:00,59.0,59.0,29.57,South,173,2.0,4.0,99,0.01,,,0.01,,2013-10-31 11:42:00,
2013-10-31 06:52:00,59.0,59.0,29.57,SE,131,1.0,5.0,99,0.05,,,0.06,,2013-10-31 11:52:00,
2013-10-31 07:12:00,59.0,59.0,29.56,SW,232,2.0,6.0,99,0.05,,,0.06,,2013-10-31 12:12:00,
2013-10-31 07:21:00,59.0,59.0,29.55,SSW,208,3.0,8.0,99,0.05,,,0.06,,2013-10-31 12:21:00,
2013-10-31 07:52:00,59.0,59.0,29.54,WSW,240,2.0,5.0,99,0.00,,,0.06,,2013-10-31 12:52:00,
2013-10-31 08:11:00,59.0,59.0,29.53,SSW,194,2.0,7.0,99,0.00,,,0.06,,2013-10-31 13:11:00,
2013-10-31 08:22:00,60.0,60.0,29.52,WSW,248,0.0,4.0,99,0.02,,,0.08,,2013-10-31 13:22:00,
2013-10-31 08:52:00,60.0,60.0,29.52,SSE,152,2.0,6.0,99,0.04,,,0.10,,2013-10-31 13:52:00,
2013-10-31 09:21:00,60.0,60.0,29.53,West,266,1.0,4.0,99,0.04,,,0.12,,2013-10-31 14:21:00,
2013-10-31 09:52:00,60.0,60.0,29.50,SE,132,3.0,8.0,99,0.05,,,0.15,,2013-10-31 14:52:00,
2013-10-31 11:23:00,61.0,60.0,29.46,SSW,208,1.0,5.0,98,0.00,,,0.17,,2013-10-31 16:23:00,
2013-10-31 11:53:00,61.0,60.0,29.44,SE,137,2.0,4.0,98,0.01,,,0.18,,2013-10-31 16:53:00,
2013-10-31 12:22:00,62.0,61.0,29.41,South,181,2.0,5.0,98,0.01,,,0.18,,2013-10-31 17:22:00,
2013-10-31 12:52:00,62.0,61.0,29.40,WSW,239,2.0,4.0,97,0.00,,,0.18,,2013-10-31 17:52:00,
2013-10-31 13:21:00,61.0,60.0,29.37,SW,214,2.0,6.0,97,0.03,,,0.21,,2013-10-31 18:21:00,
2013-10-31 13:52:00,61.0,60.0,29.35,WSW,257,2.0,4.0,97,0.06,,,0.24,,2013-10-31 18:52:00,
2013-10-31 14:21:00,61.0,60.0,29.33,WSW,253,1.0,2.0,98,0.08,,,0.29,,2013-10-31 19:21:00,
2013-10-31 14:52:00,61.0,60.0,29.30,SSW,212,0.0,2.0,98,0.12,,,0.36,,2013-10-31 19:52:00,
2013-10-31 15:22:00,61.0,60.0,29.27,WSW,256,0.0,1.0,98,0.09,,,0.38,,2013-10-31 20:22:00,
2013-10-31 15:52:00,60.0,59.0,29.26,WSW,243,1.0,1.0,98,0.03,,,0.39,,2013-10-31 20:52:00,
2013-10-31 16:22:00,60.0,59.0,29.24,SW,236,0.0,1.0,98,0.05,,,0.43,,2013-10-31 21:22:00,
2013-10-31 16:54:00,59.0,58.0,29.25,West,264,1.0,4.0,97,0.05,,,0.44,,2013-10-31 21:54:00,
2013-10-31 17:24:00,57.0,56.0,29.22,NW,311,0.0,2.0,97,0.05,,,0.48,,2013-10-31 22:24:00,
2013-10-31 17:53:00,57.0,56.0,29.21,North,5,0.0,1.0,97,0.05,,,0.49,,2013-10-31 22:53:00,
2013-10-31 18:22:00,56.0,55.0,29.20,South,186,0.0,1.0,98,0.02,,,0.50,,2013-10-31 23:22:00,
2013-10-31 18:54:00,57.0,56.0,29.21,SSW,193,1.0,3.0,98,0.01,,,0.50,,2013-10-31 23:54:00,
2013-10-31 19:21:00,56.0,55.0,29.22,WNW,292,3.0,9.0,97,0.07,,,0.57,,2013-11-01 00:21:00,
2013-10-31 19:52:00,54.0,53.0,29.23,NW,308,4.0,19.0,96,0.09,,,0.59,,2013-11-01 00:52:00,
2013-10-31 20:22:00,52.0,51.0,29.23,WNW,298,3.0,8.0,96,0.02,,,0.59,,2013-11-01 01:22:00,
2013-10-31 20:52:00,52.0,51.0,29.21,West,262,3.0,6.0,96,0.00,,,0.59,,2013-11-01 01:52:00,
2013-10-31 21:22:00,51.0,50.0,29.21,NNW,343,5.0,14.0,95,0.00,,,0.59,,2013-11-01 02:22:00,
2013-10-31 21:52:00,50.0,49.0,29.22,WNW,300,4.0,11.0,95,0.00,,,0.59,,2013-11-01 02:52:00,
2013-10-31 22:22:00,48.0,47.0,29.23,ENE,61,4.0,13.0,95,0.00,,,0.59,,2013-11-01 03:22:00,
2013-10-31 22:54:00,46.0,44.0,29.26,WSW,250,6.0,12.0,94,0.00,,,0.59,,2013-11-01 03:54:00,
2013-10-31 23:24:00,46.0,44.0,29.27,ESE,113,2.0,10.0,94,0.00,,,0.59,,2013-11-01 04:24:00,
2013-10-31 23:54:00,45.0,43.0,29.27,SSE,153,3.0,12.0,93,0.00,,,0.59,,2013-11-01 04:54:00,